sensor_id;sensor_type;location;lat;lon;timestamp;P1;durP1;ratioP1;P2;durP2;ratioP2
71566;SDS011;59403;47.456;19.120;2023-07-24T00:00:58;7.97;;;5.70;;
71566;SDS011;59403;47.456;19.120;2023-07-24T00:03:25;10.25;;;6.07;;
71566;SDS011;59403;47.456;19.120;2023-07-24T00:05:57;7.37;;;5.78;;
71566;SDS011;59403;47.456;19.120;2023-07-24T00:08:26;9.18;;;6.15;;
71566;SDS011;59403;47.456;19.120;2023-07-24T00:10:53;8.60;;;5.90;;
71566;SDS011;59403;47.456;19.120;2023-07-24T00:13:20;8.10;;;5.82;;
71566;SDS011;59403;47.456;19.120;2023-07-24T00:15:47;7.85;;;5.93;;
71566;SDS011;59403;47.456;19.120;2023-07-24T00:18:14;7.62;;;5.97;;
71566;SDS011;59403;47.456;19.120;2023-07-24T00:20:40;8.40;;;5.93;;
71566;SDS011;59403;47.456;19.120;2023-07-24T00:23:07;8.47;;;5.87;;
71566;SDS011;59403;47.456;19.120;2023-07-24T00:25:36;8.30;;;5.90;;
71566;SDS011;59403;47.456;19.120;2023-07-24T00:28:03;10.63;;;5.32;;
71566;SDS011;59403;47.456;19.120;2023-07-24T00:30:29;7.82;;;5.28;;
71566;SDS011;59403;47.456;19.120;2023-07-24T00:32:56;7.62;;;5.32;;
71566;SDS011;59403;47.456;19.120;2023-07-24T00:35:25;6.37;;;5.30;;
71566;SDS011;59403;47.456;19.120;2023-07-24T00:37:54;7.90;;;5.00;;
71566;SDS011;59403;47.456;19.120;2023-07-24T00:40:21;6.87;;;4.78;;
71566;SDS011;59403;47.456;19.120;2023-07-24T00:42:49;6.97;;;5.32;;
71566;SDS011;59403;47.456;19.120;2023-07-24T00:45:16;7.00;;;5.50;;
71566;SDS011;59403;47.456;19.120;2023-07-24T00:47:45;6.63;;;4.73;;
71566;SDS011;59403;47.456;19.120;2023-07-24T00:50:12;6.95;;;4.85;;
71566;SDS011;59403;47.456;19.120;2023-07-24T00:52:39;6.62;;;4.47;;
71566;SDS011;59403;47.456;19.120;2023-07-24T00:55:07;6.03;;;5.18;;
71566;SDS011;59403;47.456;19.120;2023-07-24T00:57:37;7.30;;;5.18;;
71566;SDS011;59403;47.456;19.120;2023-07-24T01:00:07;14.27;;;5.50;;
71566;SDS011;59403;47.456;19.120;2023-07-24T04:53:28;9.60;;;8.00;;
71566;SDS011;59403;47.456;19.120;2023-07-24T04:55:54;11.57;;;8.30;;
71566;SDS011;59403;47.456;19.120;2023-07-24T04:58:21;14.02;;;8.60;;
71566;SDS011;59403;47.456;19.120;2023-07-24T05:00:48;11.27;;;8.25;;
71566;SDS011;59403;47.456;19.120;2023-07-24T05:03:15;13.23;;;8.25;;
71566;SDS011;59403;47.456;19.120;2023-07-24T05:05:42;9.60;;;8.53;;
71566;SDS011;59403;47.456;19.120;2023-07-24T05:08:09;11.30;;;9.30;;
71566;SDS011;59403;47.456;19.120;2023-07-24T05:10:37;11.48;;;8.60;;
71566;SDS011;59403;47.456;19.120;2023-07-24T05:19:18;10.83;;;9.50;;
71566;SDS011;59403;47.456;19.120;2023-07-24T05:21:45;14.32;;;9.98;;
71566;SDS011;59403;47.456;19.120;2023-07-24T05:24:12;10.98;;;8.75;;
71566;SDS011;59403;47.456;19.120;2023-07-24T05:26:40;11.60;;;9.32;;
71566;SDS011;59403;47.456;19.120;2023-07-24T05:29:07;12.57;;;9.48;;
71566;SDS011;59403;47.456;19.120;2023-07-24T05:31:34;10.33;;;8.70;;
71566;SDS011;59403;47.456;19.120;2023-07-24T05:34:01;12.43;;;9.38;;
71566;SDS011;59403;47.456;19.120;2023-07-24T05:36:28;14.85;;;9.73;;
71566;SDS011;59403;47.456;19.120;2023-07-24T05:38:55;13.52;;;9.60;;
71566;SDS011;59403;47.456;19.120;2023-07-24T05:41:23;12.80;;;10.75;;
71566;SDS011;59403;47.456;19.120;2023-07-24T05:43:51;11.40;;;10.10;;
71566;SDS011;59403;47.456;19.120;2023-07-24T05:46:18;12.02;;;9.38;;
71566;SDS011;59403;47.456;19.120;2023-07-24T05:48:44;13.05;;;9.98;;
71566;SDS011;59403;47.456;19.120;2023-07-24T05:51:11;13.68;;;9.43;;
71566;SDS011;59403;47.456;19.120;2023-07-24T05:53:38;15.65;;;9.80;;
71566;SDS011;59403;47.456;19.120;2023-07-24T05:56:05;12.37;;;10.17;;
71566;SDS011;59403;47.456;19.120;2023-07-24T05:58:32;12.55;;;10.23;;
71566;SDS011;59403;47.456;19.120;2023-07-24T06:01:00;13.05;;;9.32;;
71566;SDS011;59403;47.456;19.120;2023-07-24T06:03:27;12.10;;;9.93;;
71566;SDS011;59403;47.456;19.120;2023-07-24T06:05:54;10.98;;;9.35;;
71566;SDS011;59403;47.456;19.120;2023-07-24T06:08:21;12.63;;;8.80;;
71566;SDS011;59403;47.456;19.120;2023-07-24T06:10:49;12.43;;;9.75;;
71566;SDS011;59403;47.456;19.120;2023-07-24T06:13:16;13.02;;;9.75;;
71566;SDS011;59403;47.456;19.120;2023-07-24T06:15:44;13.07;;;10.65;;
71566;SDS011;59403;47.456;19.120;2023-07-24T06:18:14;11.93;;;9.77;;
71566;SDS011;59403;47.456;19.120;2023-07-24T06:20:41;12.53;;;10.13;;
71566;SDS011;59403;47.456;19.120;2023-07-24T06:23:08;12.45;;;9.55;;
71566;SDS011;59403;47.456;19.120;2023-07-24T06:25:35;12.90;;;10.00;;
71566;SDS011;59403;47.456;19.120;2023-07-24T06:28:02;12.05;;;9.38;;
71566;SDS011;59403;47.456;19.120;2023-07-24T06:30:29;12.63;;;8.65;;
71566;SDS011;59403;47.456;19.120;2023-07-24T06:32:56;12.93;;;9.37;;
71566;SDS011;59403;47.456;19.120;2023-07-24T06:35:24;12.40;;;9.30;;
71566;SDS011;59403;47.456;19.120;2023-07-24T06:37:51;12.73;;;10.00;;
71566;SDS011;59403;47.456;19.120;2023-07-24T06:40:17;12.18;;;8.55;;
71566;SDS011;59403;47.456;19.120;2023-07-24T06:42:45;13.02;;;9.75;;
71566;SDS011;59403;47.456;19.120;2023-07-24T06:45:12;12.43;;;10.03;;
71566;SDS011;59403;47.456;19.120;2023-07-24T06:47:39;11.65;;;9.40;;
71566;SDS011;59403;47.456;19.120;2023-07-24T06:50:06;13.43;;;8.73;;
71566;SDS011;59403;47.456;19.120;2023-07-24T06:52:35;11.45;;;10.05;;
71566;SDS011;59403;47.456;19.120;2023-07-24T06:55:02;14.35;;;10.15;;
71566;SDS011;59403;47.456;19.120;2023-07-24T06:57:29;12.43;;;9.17;;
71566;SDS011;59403;47.456;19.120;2023-07-24T06:59:56;10.52;;;9.15;;
71566;SDS011;59403;47.456;19.120;2023-07-24T07:02:23;12.90;;;9.57;;
71566;SDS011;59403;47.456;19.120;2023-07-24T07:04:50;11.55;;;9.75;;
71566;SDS011;59403;47.456;19.120;2023-07-24T07:07:17;12.90;;;8.90;;
71566;SDS011;59403;47.456;19.120;2023-07-24T07:09:45;11.67;;;8.50;;
71566;SDS011;59403;47.456;19.120;2023-07-24T07:12:12;11.80;;;9.10;;
71566;SDS011;59403;47.456;19.120;2023-07-24T07:14:38;14.70;;;9.00;;
71566;SDS011;59403;47.456;19.120;2023-07-24T07:17:05;10.50;;;8.80;;
71566;SDS011;59403;47.456;19.120;2023-07-24T07:19:32;12.10;;;7.95;;
71566;SDS011;59403;47.456;19.120;2023-07-24T07:22:01;9.27;;;8.10;;
71566;SDS011;59403;47.456;19.120;2023-07-24T07:24:28;13.35;;;8.88;;
71566;SDS011;59403;47.456;19.120;2023-07-24T07:26:56;12.55;;;9.00;;
71566;SDS011;59403;47.456;19.120;2023-07-24T07:29:23;11.43;;;8.40;;
71566;SDS011;59403;47.456;19.120;2023-07-24T07:31:49;12.00;;;8.75;;
71566;SDS011;59403;47.456;19.120;2023-07-24T07:34:16;11.57;;;9.67;;
71566;SDS011;59403;47.456;19.120;2023-07-24T07:36:43;17.60;;;8.52;;
71566;SDS011;59403;47.456;19.120;2023-07-24T07:39:10;12.35;;;8.10;;
71566;SDS011;59403;47.456;19.120;2023-07-24T07:41:37;11.25;;;8.90;;
71566;SDS011;59403;47.456;19.120;2023-07-24T07:44:05;12.02;;;8.85;;
71566;SDS011;59403;47.456;19.120;2023-07-24T07:46:32;13.60;;;8.80;;
71566;SDS011;59403;47.456;19.120;2023-07-24T07:48:58;12.80;;;8.63;;
71566;SDS011;59403;47.456;19.120;2023-07-24T07:51:25;9.50;;;7.93;;
71566;SDS011;59403;47.456;19.120;2023-07-24T07:53:52;13.98;;;8.57;;
71566;SDS011;59403;47.456;19.120;2023-07-24T07:56:19;12.23;;;8.13;;
71566;SDS011;59403;47.456;19.120;2023-07-24T07:58:46;11.77;;;7.90;;
71566;SDS011;59403;47.456;19.120;2023-07-24T08:01:15;12.05;;;8.32;;
71566;SDS011;59403;47.456;19.120;2023-07-24T08:03:42;14.55;;;9.45;;
71566;SDS011;59403;47.456;19.120;2023-07-24T08:06:09;11.90;;;8.85;;
71566;SDS011;59403;47.456;19.120;2023-07-24T08:08:37;18.25;;;8.82;;
71566;SDS011;59403;47.456;19.120;2023-07-24T08:11:04;12.03;;;9.53;;
71566;SDS011;59403;47.456;19.120;2023-07-24T08:13:32;13.13;;;8.95;;
71566;SDS011;59403;47.456;19.120;2023-07-24T08:15:59;11.95;;;8.30;;
71566;SDS011;59403;47.456;19.120;2023-07-24T08:18:29;16.62;;;9.10;;
71566;SDS011;59403;47.456;19.120;2023-07-24T08:20:56;14.32;;;9.30;;
71566;SDS011;59403;47.456;19.120;2023-07-24T08:23:23;15.73;;;9.90;;
71566;SDS011;59403;47.456;19.120;2023-07-24T08:25:53;18.37;;;10.27;;
71566;SDS011;59403;47.456;19.120;2023-07-24T08:28:20;15.85;;;9.35;;
71566;SDS011;59403;47.456;19.120;2023-07-24T08:30:55;12.70;;;9.07;;
71566;SDS011;59403;47.456;19.120;2023-07-24T08:33:23;13.23;;;8.85;;
71566;SDS011;59403;47.456;19.120;2023-07-24T08:35:58;10.80;;;8.87;;
71566;SDS011;59403;47.456;19.120;2023-07-24T08:38:29;10.35;;;7.68;;
71566;SDS011;59403;47.456;19.120;2023-07-24T08:41:05;10.05;;;7.97;;
71566;SDS011;59403;47.456;19.120;2023-07-24T08:43:33;16.92;;;8.27;;
71566;SDS011;59403;47.456;19.120;2023-07-24T08:46:02;13.43;;;9.48;;
71566;SDS011;59403;47.456;19.120;2023-07-24T08:48:30;12.73;;;8.33;;
71566;SDS011;59403;47.456;19.120;2023-07-24T08:51:03;11.07;;;8.30;;
71566;SDS011;59403;47.456;19.120;2023-07-24T08:53:32;11.95;;;8.43;;
71566;SDS011;59403;47.456;19.120;2023-07-24T08:59:21;12.40;;;8.00;;
71566;SDS011;59403;47.456;19.120;2023-07-24T09:01:48;11.80;;;7.90;;
71566;SDS011;59403;47.456;19.120;2023-07-24T09:04:15;15.57;;;8.50;;
71566;SDS011;59403;47.456;19.120;2023-07-24T09:06:44;11.63;;;6.87;;
71566;SDS011;59403;47.456;19.120;2023-07-24T09:09:12;11.20;;;8.57;;
71566;SDS011;59403;47.456;19.120;2023-07-24T09:11:46;12.23;;;7.50;;
71566;SDS011;59403;47.456;19.120;2023-07-24T09:14:21;11.33;;;7.93;;
71566;SDS011;59403;47.456;19.120;2023-07-24T09:17:02;14.63;;;8.40;;
71566;SDS011;59403;47.456;19.120;2023-07-24T09:19:30;12.50;;;8.23;;
71566;SDS011;59403;47.456;19.120;2023-07-24T09:22:08;13.57;;;8.27;;
71566;SDS011;59403;47.456;19.120;2023-07-24T09:24:36;12.55;;;8.10;;
71566;SDS011;59403;47.456;19.120;2023-07-24T09:27:04;13.17;;;8.17;;
71566;SDS011;59403;47.456;19.120;2023-07-24T09:29:32;17.90;;;8.27;;
71566;SDS011;59403;47.456;19.120;2023-07-24T09:31:59;12.85;;;7.95;;
71566;SDS011;59403;47.456;19.120;2023-07-24T09:34:26;13.02;;;8.02;;
71566;SDS011;59403;47.456;19.120;2023-07-24T09:36:53;14.45;;;7.97;;
71566;SDS011;59403;47.456;19.120;2023-07-24T09:39:23;13.33;;;8.03;;
71566;SDS011;59403;47.456;19.120;2023-07-24T09:41:51;16.62;;;7.60;;
71566;SDS011;59403;47.456;19.120;2023-07-24T09:44:19;14.87;;;8.52;;
71566;SDS011;59403;47.456;19.120;2023-07-24T09:46:46;12.52;;;8.43;;
71566;SDS011;59403;47.456;19.120;2023-07-24T09:49:13;15.15;;;7.82;;
71566;SDS011;59403;47.456;19.120;2023-07-24T09:51:40;12.63;;;8.13;;
71566;SDS011;59403;47.456;19.120;2023-07-24T09:54:15;13.38;;;7.87;;
71566;SDS011;59403;47.456;19.120;2023-07-24T09:56:49;11.12;;;7.53;;
71566;SDS011;59403;47.456;19.120;2023-07-24T09:59:17;14.35;;;8.25;;
71566;SDS011;59403;47.456;19.120;2023-07-24T10:01:46;13.82;;;9.45;;
71566;SDS011;59403;47.456;19.120;2023-07-24T10:04:13;12.10;;;7.70;;
71566;SDS011;59403;47.456;19.120;2023-07-24T10:06:41;12.90;;;8.05;;
71566;SDS011;59403;47.456;19.120;2023-07-24T10:09:09;11.48;;;7.65;;
71566;SDS011;59403;47.456;19.120;2023-07-24T10:11:38;12.13;;;8.73;;
71566;SDS011;59403;47.456;19.120;2023-07-24T10:14:06;15.50;;;8.38;;
71566;SDS011;59403;47.456;19.120;2023-07-24T10:16:33;12.97;;;7.87;;
71566;SDS011;59403;47.456;19.120;2023-07-24T10:19:00;11.75;;;8.10;;
71566;SDS011;59403;47.456;19.120;2023-07-24T10:21:27;16.52;;;8.02;;
71566;SDS011;59403;47.456;19.120;2023-07-24T10:23:54;13.77;;;8.20;;
71566;SDS011;59403;47.456;19.120;2023-07-24T10:26:24;10.88;;;7.95;;
71566;SDS011;59403;47.456;19.120;2023-07-24T10:28:51;14.40;;;8.50;;
71566;SDS011;59403;47.456;19.120;2023-07-24T10:31:21;13.93;;;8.48;;
71566;SDS011;59403;47.456;19.120;2023-07-24T10:33:51;16.20;;;9.07;;
71566;SDS011;59403;47.456;19.120;2023-07-24T10:36:18;13.23;;;8.88;;
71566;SDS011;59403;47.456;19.120;2023-07-24T10:38:52;14.15;;;8.77;;
71566;SDS011;59403;47.456;19.120;2023-07-24T10:41:19;15.13;;;8.37;;
71566;SDS011;59403;47.456;19.120;2023-07-24T10:43:47;14.60;;;8.80;;
71566;SDS011;59403;47.456;19.120;2023-07-24T10:46:16;13.55;;;8.75;;
71566;SDS011;59403;47.456;19.120;2023-07-24T10:48:45;15.43;;;9.32;;
71566;SDS011;59403;47.456;19.120;2023-07-24T10:51:14;13.10;;;8.45;;
71566;SDS011;59403;47.456;19.120;2023-07-24T10:53:42;14.07;;;7.87;;
71566;SDS011;59403;47.456;19.120;2023-07-24T10:56:10;13.80;;;8.60;;
71566;SDS011;59403;47.456;19.120;2023-07-24T10:58:37;12.40;;;8.68;;
71566;SDS011;59403;47.456;19.120;2023-07-24T11:01:04;14.32;;;8.38;;
71566;SDS011;59403;47.456;19.120;2023-07-24T11:03:31;16.77;;;9.00;;
71566;SDS011;59403;47.456;19.120;2023-07-24T11:06:00;13.70;;;8.57;;
71566;SDS011;59403;47.456;19.120;2023-07-24T11:08:29;13.13;;;8.10;;
71566;SDS011;59403;47.456;19.120;2023-07-24T11:10:58;15.68;;;9.20;;
71566;SDS011;59403;47.456;19.120;2023-07-24T11:13:26;13.38;;;8.50;;
71566;SDS011;59403;47.456;19.120;2023-07-24T11:15:54;12.05;;;8.32;;
71566;SDS011;59403;47.456;19.120;2023-07-24T11:18:22;12.27;;;7.73;;
71566;SDS011;59403;47.456;19.120;2023-07-24T11:20:53;13.60;;;7.80;;
71566;SDS011;59403;47.456;19.120;2023-07-24T11:23:22;11.43;;;7.65;;
71566;SDS011;59403;47.456;19.120;2023-07-24T11:25:50;11.88;;;8.80;;
71566;SDS011;59403;47.456;19.120;2023-07-24T11:28:17;11.35;;;8.38;;
71566;SDS011;59403;47.456;19.120;2023-07-24T11:30:44;12.73;;;8.20;;
71566;SDS011;59403;47.456;19.120;2023-07-24T11:33:12;12.10;;;8.77;;
71566;SDS011;59403;47.456;19.120;2023-07-24T11:35:42;14.52;;;8.30;;
71566;SDS011;59403;47.456;19.120;2023-07-24T11:38:09;12.07;;;8.77;;
71566;SDS011;59403;47.456;19.120;2023-07-24T11:40:39;12.55;;;8.65;;
71566;SDS011;59403;47.456;19.120;2023-07-24T11:43:14;16.23;;;8.20;;
71566;SDS011;59403;47.456;19.120;2023-07-24T11:45:42;15.77;;;8.40;;
71566;SDS011;59403;47.456;19.120;2023-07-24T11:48:10;13.57;;;8.27;;
71566;SDS011;59403;47.456;19.120;2023-07-24T11:50:41;13.20;;;8.70;;
71566;SDS011;59403;47.456;19.120;2023-07-24T11:53:18;10.75;;;7.72;;
71566;SDS011;59403;47.456;19.120;2023-07-24T11:55:49;13.87;;;8.10;;
71566;SDS011;59403;47.456;19.120;2023-07-24T11:58:17;15.40;;;8.55;;
71566;SDS011;59403;47.456;19.120;2023-07-24T12:00:45;12.65;;;8.40;;
71566;SDS011;59403;47.456;19.120;2023-07-24T12:03:13;11.70;;;7.30;;
71566;SDS011;59403;47.456;19.120;2023-07-24T12:05:40;13.18;;;8.30;;
71566;SDS011;59403;47.456;19.120;2023-07-24T12:08:08;10.90;;;8.03;;
71566;SDS011;59403;47.456;19.120;2023-07-24T12:10:36;14.15;;;7.68;;
71566;SDS011;59403;47.456;19.120;2023-07-24T12:13:05;12.18;;;8.10;;
71566;SDS011;59403;47.456;19.120;2023-07-24T12:15:33;12.75;;;7.55;;
71566;SDS011;59403;47.456;19.120;2023-07-24T12:18:00;16.05;;;8.85;;
71566;SDS011;59403;47.456;19.120;2023-07-24T12:20:27;13.77;;;8.13;;
71566;SDS011;59403;47.456;19.120;2023-07-24T12:22:55;11.55;;;7.68;;
71566;SDS011;59403;47.456;19.120;2023-07-24T12:25:22;12.73;;;7.93;;
71566;SDS011;59403;47.456;19.120;2023-07-24T12:27:50;12.00;;;7.43;;
71566;SDS011;59403;47.456;19.120;2023-07-24T12:30:18;12.48;;;8.18;;
71566;SDS011;59403;47.456;19.120;2023-07-24T12:32:46;14.20;;;8.43;;
71566;SDS011;59403;47.456;19.120;2023-07-24T12:35:13;13.43;;;7.68;;
71566;SDS011;59403;47.456;19.120;2023-07-24T12:37:39;13.10;;;7.50;;
71566;SDS011;59403;47.456;19.120;2023-07-24T12:40:07;13.90;;;7.62;;
71566;SDS011;59403;47.456;19.120;2023-07-24T12:42:35;12.48;;;8.48;;
71566;SDS011;59403;47.456;19.120;2023-07-24T12:45:02;15.67;;;7.93;;
71566;SDS011;59403;47.456;19.120;2023-07-24T12:47:31;12.63;;;8.10;;
71566;SDS011;59403;47.456;19.120;2023-07-24T12:49:58;10.75;;;7.95;;
71566;SDS011;59403;47.456;19.120;2023-07-24T12:52:26;12.50;;;8.18;;
71566;SDS011;59403;47.456;19.120;2023-07-24T12:54:55;11.57;;;8.15;;
71566;SDS011;59403;47.456;19.120;2023-07-24T12:57:22;13.37;;;8.30;;
71566;SDS011;59403;47.456;19.120;2023-07-24T12:59:48;11.77;;;7.90;;
71566;SDS011;59403;47.456;19.120;2023-07-24T13:02:15;12.37;;;8.10;;
71566;SDS011;59403;47.456;19.120;2023-07-24T13:04:44;11.82;;;7.03;;
71566;SDS011;59403;47.456;19.120;2023-07-24T13:07:10;12.90;;;8.25;;
71566;SDS011;59403;47.456;19.120;2023-07-24T13:09:37;13.27;;;8.00;;
71566;SDS011;59403;47.456;19.120;2023-07-24T13:12:05;11.23;;;8.00;;
71566;SDS011;59403;47.456;19.120;2023-07-24T13:14:32;12.85;;;7.18;;
71566;SDS011;59403;47.456;19.120;2023-07-24T13:16:59;12.48;;;8.20;;
71566;SDS011;59403;47.456;19.120;2023-07-24T13:19:26;12.25;;;8.15;;
71566;SDS011;59403;47.456;19.120;2023-07-24T13:21:54;12.30;;;7.83;;
71566;SDS011;59403;47.456;19.120;2023-07-24T13:24:22;10.90;;;7.95;;
71566;SDS011;59403;47.456;19.120;2023-07-24T13:26:49;17.15;;;7.97;;
71566;SDS011;59403;47.456;19.120;2023-07-24T13:29:16;17.30;;;8.63;;
71566;SDS011;59403;47.456;19.120;2023-07-24T13:31:42;17.65;;;8.85;;
71566;SDS011;59403;47.456;19.120;2023-07-24T13:34:09;16.53;;;8.73;;
71566;SDS011;59403;47.456;19.120;2023-07-24T13:36:36;11.50;;;7.87;;
71566;SDS011;59403;47.456;19.120;2023-07-24T13:39:04;14.48;;;8.98;;
71566;SDS011;59403;47.456;19.120;2023-07-24T13:41:31;13.23;;;8.48;;
71566;SDS011;59403;47.456;19.120;2023-07-24T13:43:58;11.95;;;8.82;;
71566;SDS011;59403;47.456;19.120;2023-07-24T13:46:25;14.77;;;9.37;;
71566;SDS011;59403;47.456;19.120;2023-07-24T13:48:52;12.65;;;8.63;;
71566;SDS011;59403;47.456;19.120;2023-07-24T13:51:18;14.30;;;8.55;;
71566;SDS011;59403;47.456;19.120;2023-07-24T13:53:45;14.30;;;8.80;;
71566;SDS011;59403;47.456;19.120;2023-07-24T13:56:15;18.80;;;10.07;;
71566;SDS011;59403;47.456;19.120;2023-07-24T13:58:43;15.27;;;10.13;;
71566;SDS011;59403;47.456;19.120;2023-07-24T14:01:11;14.57;;;9.23;;
71566;SDS011;59403;47.456;19.120;2023-07-24T14:03:37;16.08;;;9.70;;
71566;SDS011;59403;47.456;19.120;2023-07-24T14:06:04;14.90;;;10.15;;
71566;SDS011;59403;47.456;19.120;2023-07-24T14:08:32;15.77;;;10.15;;
71566;SDS011;59403;47.456;19.120;2023-07-24T14:10:58;16.40;;;9.73;;
71566;SDS011;59403;47.456;19.120;2023-07-24T14:13:27;15.48;;;10.30;;
71566;SDS011;59403;47.456;19.120;2023-07-24T14:15:53;15.93;;;10.20;;
71566;SDS011;59403;47.456;19.120;2023-07-24T14:18:20;14.80;;;10.02;;
71566;SDS011;59403;47.456;19.120;2023-07-24T14:20:47;18.08;;;10.65;;
71566;SDS011;59403;47.456;19.120;2023-07-24T14:23:14;16.57;;;10.87;;
71566;SDS011;59403;47.456;19.120;2023-07-24T14:25:41;17.92;;;10.93;;
71566;SDS011;59403;47.456;19.120;2023-07-24T14:28:08;18.70;;;9.90;;
71566;SDS011;59403;47.456;19.120;2023-07-24T14:30:36;22.02;;;10.18;;
71566;SDS011;59403;47.456;19.120;2023-07-24T14:33:03;18.10;;;9.93;;
71566;SDS011;59403;47.456;19.120;2023-07-24T14:35:30;19.80;;;10.10;;
71566;SDS011;59403;47.456;19.120;2023-07-24T14:37:57;20.67;;;10.23;;
71566;SDS011;59403;47.456;19.120;2023-07-24T14:40:23;16.23;;;9.52;;
71566;SDS011;59403;47.456;19.120;2023-07-24T14:42:50;17.30;;;10.30;;
71566;SDS011;59403;47.456;19.120;2023-07-24T14:45:17;16.87;;;8.90;;
71566;SDS011;59403;47.456;19.120;2023-07-24T14:47:45;15.90;;;10.63;;
71566;SDS011;59403;47.456;19.120;2023-07-24T14:50:13;17.08;;;10.43;;
71566;SDS011;59403;47.456;19.120;2023-07-24T14:52:41;20.65;;;10.18;;
71566;SDS011;59403;47.456;19.120;2023-07-24T14:55:08;17.48;;;9.95;;
71566;SDS011;59403;47.456;19.120;2023-07-24T14:57:35;15.48;;;9.65;;
71566;SDS011;59403;47.456;19.120;2023-07-24T15:00:02;19.60;;;10.13;;
71566;SDS011;59403;47.456;19.120;2023-07-24T15:02:30;14.70;;;9.35;;
71566;SDS011;59403;47.456;19.120;2023-07-24T15:04:59;15.85;;;10.30;;
71566;SDS011;59403;47.456;19.120;2023-07-24T15:07:26;16.00;;;9.98;;
71566;SDS011;59403;47.456;19.120;2023-07-24T15:09:52;15.80;;;8.80;;
71566;SDS011;59403;47.456;19.120;2023-07-24T15:12:20;15.53;;;9.17;;
71566;SDS011;59403;47.456;19.120;2023-07-24T15:14:47;15.13;;;9.20;;
71566;SDS011;59403;47.456;19.120;2023-07-24T15:17:13;16.17;;;9.52;;
71566;SDS011;59403;47.456;19.120;2023-07-24T15:19:40;18.10;;;10.10;;
71566;SDS011;59403;47.456;19.120;2023-07-24T15:22:09;17.48;;;9.52;;
71566;SDS011;59403;47.456;19.120;2023-07-24T15:24:35;16.30;;;9.47;;
71566;SDS011;59403;47.456;19.120;2023-07-24T15:27:03;16.75;;;9.13;;
71566;SDS011;59403;47.456;19.120;2023-07-24T15:29:33;13.05;;;9.07;;
71566;SDS011;59403;47.456;19.120;2023-07-24T15:32:00;16.62;;;9.93;;
71566;SDS011;59403;47.456;19.120;2023-07-24T15:34:28;16.40;;;9.18;;
71566;SDS011;59403;47.456;19.120;2023-07-24T15:36:54;18.23;;;9.20;;
71566;SDS011;59403;47.456;19.120;2023-07-24T15:39:23;20.90;;;9.65;;
71566;SDS011;59403;47.456;19.120;2023-07-24T15:41:49;19.55;;;9.77;;
71566;SDS011;59403;47.456;19.120;2023-07-24T15:44:16;19.12;;;10.30;;
71566;SDS011;59403;47.456;19.120;2023-07-24T15:46:43;16.70;;;9.52;;
71566;SDS011;59403;47.456;19.120;2023-07-24T15:49:11;13.33;;;8.63;;
71566;SDS011;59403;47.456;19.120;2023-07-24T15:51:38;16.42;;;9.60;;
71566;SDS011;59403;47.456;19.120;2023-07-24T15:54:05;19.62;;;9.73;;
71566;SDS011;59403;47.456;19.120;2023-07-24T15:56:37;18.80;;;8.95;;
71566;SDS011;59403;47.456;19.120;2023-07-24T15:59:04;15.32;;;9.20;;
71566;SDS011;59403;47.456;19.120;2023-07-24T16:01:31;16.00;;;8.77;;
71566;SDS011;59403;47.456;19.120;2023-07-24T16:03:58;16.92;;;9.52;;
71566;SDS011;59403;47.456;19.120;2023-07-24T16:06:25;13.88;;;9.02;;
71566;SDS011;59403;47.456;19.120;2023-07-24T16:08:52;15.80;;;9.13;;
71566;SDS011;59403;47.456;19.120;2023-07-24T16:11:19;21.87;;;9.73;;
71566;SDS011;59403;47.456;19.120;2023-07-24T16:13:47;24.10;;;9.77;;
71566;SDS011;59403;47.456;19.120;2023-07-24T16:16:14;25.70;;;10.23;;
71566;SDS011;59403;47.456;19.120;2023-07-24T16:18:41;15.95;;;9.50;;
71566;SDS011;59403;47.456;19.120;2023-07-24T16:21:08;12.80;;;8.52;;
71566;SDS011;59403;47.456;19.120;2023-07-24T16:23:35;17.85;;;9.00;;
71566;SDS011;59403;47.456;19.120;2023-07-24T16:26:02;19.17;;;9.50;;
71566;SDS011;59403;47.456;19.120;2023-07-24T16:28:29;15.07;;;9.50;;
71566;SDS011;59403;47.456;19.120;2023-07-24T16:30:57;15.95;;;9.43;;
71566;SDS011;59403;47.456;19.120;2023-07-24T16:33:24;16.08;;;9.48;;
71566;SDS011;59403;47.456;19.120;2023-07-24T16:35:51;19.87;;;9.30;;
71566;SDS011;59403;47.456;19.120;2023-07-24T16:38:18;19.00;;;9.90;;
71566;SDS011;59403;47.456;19.120;2023-07-24T16:40:45;16.35;;;9.20;;
71566;SDS011;59403;47.456;19.120;2023-07-24T16:43:12;13.00;;;8.40;;
71566;SDS011;59403;47.456;19.120;2023-07-24T16:45:39;16.15;;;8.75;;
71566;SDS011;59403;47.456;19.120;2023-07-24T16:48:07;18.48;;;9.65;;
71566;SDS011;59403;47.456;19.120;2023-07-24T16:50:34;21.10;;;8.83;;
71566;SDS011;59403;47.456;19.120;2023-07-24T16:53:01;17.48;;;8.85;;
71566;SDS011;59403;47.456;19.120;2023-07-24T16:55:28;16.87;;;7.93;;
71566;SDS011;59403;47.456;19.120;2023-07-24T16:57:55;22.37;;;8.77;;
71566;SDS011;59403;47.456;19.120;2023-07-24T17:00:22;19.92;;;9.75;;
71566;SDS011;59403;47.456;19.120;2023-07-24T17:02:48;14.00;;;8.50;;
71566;SDS011;59403;47.456;19.120;2023-07-24T17:05:17;16.87;;;8.57;;
71566;SDS011;59403;47.456;19.120;2023-07-24T17:07:44;15.75;;;8.52;;
71566;SDS011;59403;47.456;19.120;2023-07-24T17:10:10;15.82;;;8.13;;
71566;SDS011;59403;47.456;19.120;2023-07-24T17:12:40;14.93;;;8.25;;
71566;SDS011;59403;47.456;19.120;2023-07-24T17:15:07;16.93;;;8.73;;
71566;SDS011;59403;47.456;19.120;2023-07-24T17:17:34;14.07;;;8.10;;
71566;SDS011;59403;47.456;19.120;2023-07-24T17:20:01;11.95;;;7.70;;
71566;SDS011;59403;47.456;19.120;2023-07-24T17:22:30;13.82;;;8.25;;
71566;SDS011;59403;47.456;19.120;2023-07-24T17:24:56;15.30;;;8.13;;
71566;SDS011;59403;47.456;19.120;2023-07-24T17:27:23;12.20;;;7.97;;
71566;SDS011;59403;47.456;19.120;2023-07-24T17:29:50;17.10;;;8.68;;
71566;SDS011;59403;47.456;19.120;2023-07-24T17:32:17;17.60;;;8.63;;
71566;SDS011;59403;47.456;19.120;2023-07-24T17:34:47;14.20;;;8.02;;
71566;SDS011;59403;47.456;19.120;2023-07-24T17:37:14;13.62;;;7.60;;
71566;SDS011;59403;47.456;19.120;2023-07-24T17:39:42;18.87;;;8.10;;
71566;SDS011;59403;47.456;19.120;2023-07-24T17:42:09;15.68;;;8.30;;
71566;SDS011;59403;47.456;19.120;2023-07-24T17:44:36;14.52;;;8.00;;
71566;SDS011;59403;47.456;19.120;2023-07-24T17:47:03;18.73;;;7.85;;
71566;SDS011;59403;47.456;19.120;2023-07-24T17:49:30;20.62;;;8.50;;
71566;SDS011;59403;47.456;19.120;2023-07-24T17:51:57;14.00;;;7.90;;
71566;SDS011;59403;47.456;19.120;2023-07-24T17:54:23;13.02;;;7.50;;
71566;SDS011;59403;47.456;19.120;2023-07-24T17:56:52;16.37;;;7.50;;
71566;SDS011;59403;47.456;19.120;2023-07-24T17:59:22;13.68;;;7.90;;
71566;SDS011;59403;47.456;19.120;2023-07-24T18:01:49;13.68;;;7.75;;
71566;SDS011;59403;47.456;19.120;2023-07-24T18:04:16;13.07;;;6.60;;
71566;SDS011;59403;47.456;19.120;2023-07-24T18:06:43;10.13;;;6.90;;
71566;SDS011;59403;47.456;19.120;2023-07-24T18:09:10;13.20;;;7.40;;
71566;SDS011;59403;47.456;19.120;2023-07-24T18:11:36;12.85;;;7.28;;
71566;SDS011;59403;47.456;19.120;2023-07-24T18:14:04;12.07;;;7.65;;
71566;SDS011;59403;47.456;19.120;2023-07-24T18:16:32;15.53;;;6.83;;
71566;SDS011;59403;47.456;19.120;2023-07-24T18:18:58;16.87;;;7.10;;
71566;SDS011;59403;47.456;19.120;2023-07-24T18:21:25;15.88;;;7.50;;
71566;SDS011;59403;47.456;19.120;2023-07-24T18:23:52;14.70;;;7.70;;